createdAt,value
2022-08-31T00:01:03.673Z,2.85
2022-08-31T00:03:50.644Z,2.95
2022-08-31T00:06:17.922Z,3.22
2022-08-31T00:08:45.025Z,2.70
2022-08-31T00:11:14.541Z,3.20
2022-08-31T00:13:42.699Z,3.38
2022-08-31T00:16:11.674Z,3.25
2022-08-31T00:18:39.048Z,2.92
2022-08-31T00:21:06.527Z,3.08
2022-08-31T00:23:33.694Z,2.65
2022-08-31T00:26:00.956Z,3.05
2022-08-31T00:28:28.101Z,3.20
2022-08-31T00:30:55.282Z,3.13
2022-08-31T00:33:22.434Z,3.53
2022-08-31T00:35:49.712Z,3.47
2022-08-31T00:38:17.139Z,2.85
2022-08-31T00:40:46.859Z,3.58
2022-08-31T00:43:35.944Z,2.45
2022-08-31T00:46:03.502Z,2.97
2022-08-31T00:48:30.877Z,3.00
2022-08-31T00:50:58.439Z,2.80
2022-08-31T00:53:26.823Z,2.97
2022-08-31T00:55:54.376Z,3.25
2022-08-31T00:58:22.243Z,2.97
2022-08-31T01:00:49.585Z,3.45
2022-08-31T01:03:17.558Z,3.17
2022-08-31T01:05:45.178Z,3.03
2022-08-31T01:08:12.455Z,3.38
2022-08-31T01:10:47.007Z,3.13
2022-08-31T01:13:15.709Z,3.05
2022-08-31T01:15:54.085Z,2.72
2022-08-31T01:18:23.956Z,3.17
2022-08-31T01:21:30.255Z,3.00
2022-08-31T01:24:02.675Z,3.38
2022-08-31T01:26:31.717Z,2.80
2022-08-31T01:29:03.203Z,3.13
2022-08-31T01:31:39.139Z,3.20
2022-08-31T01:34:06.877Z,2.45
2022-08-31T01:36:36.040Z,2.60
2022-08-31T01:39:04.458Z,3.17
2022-08-31T01:41:31.636Z,3.03
2022-08-31T01:43:58.845Z,3.20
2022-08-31T01:46:26.114Z,3.25
2022-08-31T01:48:53.739Z,3.08
2022-08-31T01:51:23.115Z,2.53
2022-08-31T01:53:52.673Z,2.83
2022-08-31T01:56:28.398Z,3.03
2022-08-31T01:58:55.849Z,2.90
2022-08-31T02:01:33.943Z,2.75
2022-08-31T02:04:04.560Z,3.17
2022-08-31T02:06:32.504Z,2.80
2022-08-31T02:09:00.315Z,3.05
2022-08-31T02:11:27.478Z,2.75
2022-08-31T02:13:54.724Z,2.90
2022-08-31T02:16:22.033Z,2.90
2022-08-31T02:18:49.745Z,2.67
2022-08-31T02:21:17.034Z,2.65
2022-08-31T02:23:44.420Z,3.00
2022-08-31T02:26:11.902Z,2.47
2022-08-31T02:28:39.209Z,2.90
2022-08-31T02:31:06.547Z,2.78
2022-08-31T02:33:33.828Z,3.08
2022-08-31T02:36:00.974Z,2.63
2022-08-31T02:38:28.223Z,3.15
2022-08-31T02:40:55.589Z,3.00
2022-08-31T02:43:24.799Z,2.90
2022-08-31T02:45:53.824Z,2.72
2022-08-31T02:48:21.593Z,2.80
2022-08-31T02:50:51.311Z,3.15
2022-08-31T02:53:21.441Z,2.45
2022-08-31T02:55:49.455Z,3.00
2022-08-31T02:58:20.679Z,2.40
2022-08-31T03:00:51.723Z,3.38
2022-08-31T03:03:19.211Z,2.70
2022-08-31T03:05:46.612Z,3.08
2022-08-31T03:08:13.807Z,2.75
2022-08-31T03:10:41.448Z,2.90
2022-08-31T03:13:08.587Z,2.90
2022-08-31T03:15:35.856Z,3.03
2022-08-31T03:18:06.975Z,2.67
2022-08-31T03:20:34.876Z,2.70
2022-08-31T03:23:02.985Z,3.03
2022-08-31T03:25:31.051Z,2.40
2022-08-31T03:27:58.196Z,2.88
2022-08-31T03:30:29.252Z,3.05
2022-08-31T03:32:59.330Z,2.75
2022-08-31T03:35:30.809Z,3.08
2022-08-31T03:37:58.205Z,2.95
2022-08-31T03:40:25.448Z,3.13
2022-08-31T03:42:52.699Z,2.85
2022-08-31T03:45:20.357Z,2.58
2022-08-31T03:47:47.553Z,2.58
2022-08-31T03:50:16.216Z,2.67
2022-08-31T03:52:43.446Z,3.20
2022-08-31T03:55:12.029Z,2.45
2022-08-31T03:57:39.432Z,2.70
2022-08-31T04:00:07.763Z,2.72
2022-08-31T04:02:38.456Z,2.45
2022-08-31T04:05:07.271Z,2.58
2022-08-31T04:07:42.025Z,2.53
2022-08-31T04:10:14.067Z,2.92
2022-08-31T04:12:41.859Z,3.08
2022-08-31T04:15:09.676Z,2.72
2022-08-31T04:17:37.541Z,2.63
2022-08-31T04:20:06.785Z,3.22
2022-08-31T04:22:33.999Z,2.50
2022-08-31T04:25:01.153Z,2.78
2022-08-31T04:27:28.571Z,3.22
2022-08-31T04:29:55.756Z,2.70
2022-08-31T04:32:23.098Z,2.88
2022-08-31T04:34:56.168Z,2.80
2022-08-31T04:37:24.033Z,3.20
2022-08-31T04:39:52.090Z,3.10
2022-08-31T04:42:19.743Z,2.40
2022-08-31T04:44:46.921Z,2.25
2022-08-31T04:47:14.117Z,2.92
2022-08-31T04:49:41.255Z,2.70
2022-08-31T04:52:09.013Z,2.78
2022-08-31T04:54:36.753Z,2.78
2022-08-31T04:57:03.987Z,3.00
2022-08-31T04:59:31.140Z,3.40
2022-08-31T05:01:59.201Z,2.35
2022-08-31T05:04:29.219Z,3.20
2022-08-31T05:06:57.515Z,2.88
2022-08-31T05:09:24.804Z,2.90
2022-08-31T05:11:54.262Z,2.80
2022-08-31T05:14:23.331Z,2.70
2022-08-31T05:16:51.745Z,2.97
2022-08-31T05:34:22.676Z,2.88
2022-08-31T05:40:11.336Z,3.60
2022-08-31T05:42:38.555Z,3.97
2022-08-31T05:45:06.076Z,3.70
2022-08-31T05:47:33.270Z,4.07
2022-08-31T05:54:18.185Z,3.97
2022-08-31T05:56:46.009Z,3.88
2022-08-31T05:59:15.441Z,3.63
2022-08-31T06:01:42.873Z,4.18
2022-08-31T06:04:10.916Z,4.10
2022-08-31T06:06:38.757Z,3.63
2022-08-31T06:09:07.830Z,3.53
2022-08-31T06:11:36.043Z,4.28
2022-08-31T06:14:04.633Z,3.78
2022-08-31T06:16:33.564Z,4.00
2022-08-31T06:19:20.506Z,3.88
2022-08-31T06:21:50.338Z,3.88
2022-08-31T06:24:18.961Z,3.53
2022-08-31T06:26:58.528Z,4.20
2022-08-31T06:29:28.209Z,4.95
2022-08-31T06:32:14.121Z,4.40
2022-08-31T06:34:43.674Z,4.20
2022-08-31T06:37:18.616Z,3.92
2022-08-31T06:39:54.025Z,4.03
2022-08-31T06:42:24.301Z,4.28
2022-08-31T06:45:57.730Z,4.10
2022-08-31T06:48:25.255Z,4.32
2022-08-31T06:51:01.559Z,4.07
2022-08-31T06:53:30.421Z,4.05
2022-08-31T06:55:57.591Z,5.25
2022-08-31T06:58:24.713Z,4.25
2022-08-31T07:00:52.938Z,4.28
2022-08-31T07:03:23.366Z,4.20
2022-08-31T07:05:52.530Z,4.60
2022-08-31T07:08:22.850Z,4.00
2022-08-31T07:10:50.023Z,4.35
2022-08-31T07:13:17.273Z,3.92
2022-08-31T07:15:45.020Z,4.30
2022-08-31T07:18:12.178Z,4.18
2022-08-31T07:20:39.336Z,3.83
2022-08-31T07:23:06.706Z,3.80
2022-08-31T07:25:39.388Z,4.00
2022-08-31T07:28:06.776Z,4.22
2022-08-31T07:30:42.296Z,3.80
2022-08-31T07:33:10.415Z,3.80
2022-08-31T07:35:37.586Z,3.88
2022-08-31T07:38:25.156Z,4.05
2022-08-31T07:41:12.106Z,3.95
2022-08-31T07:43:39.240Z,3.80
2022-08-31T07:46:07.283Z,4.47
2022-08-31T07:48:35.490Z,4.13
2022-08-31T07:51:02.592Z,5.00
2022-08-31T07:53:29.707Z,4.03
2022-08-31T07:55:56.891Z,3.97
2022-08-31T07:58:28.148Z,3.92
2022-08-31T08:00:55.702Z,3.78
2022-08-31T08:03:23.297Z,3.88
2022-08-31T08:05:55.241Z,4.95
2022-08-31T08:08:23.593Z,3.95
2022-08-31T08:10:52.270Z,3.75
2022-08-31T08:13:20.794Z,4.30
2022-08-31T08:15:52.065Z,4.45
2022-08-31T08:18:20.139Z,4.18
2022-08-31T08:20:48.288Z,4.97
2022-08-31T08:23:18.277Z,3.55
2022-08-31T08:25:47.277Z,4.15
2022-08-31T08:28:39.897Z,4.05
2022-08-31T08:31:13.497Z,3.80
2022-08-31T08:33:40.759Z,4.10
2022-08-31T08:36:08.850Z,4.55
2022-08-31T08:38:40.271Z,4.90
2022-08-31T08:41:24.111Z,3.47
2022-08-31T08:43:58.552Z,3.67
2022-08-31T08:46:44.310Z,4.00
2022-08-31T08:49:21.380Z,3.15
2022-08-31T08:51:53.846Z,3.88
2022-08-31T08:54:32.167Z,4.18
2022-08-31T08:57:01.478Z,4.10
2022-08-31T08:59:29.697Z,3.73
2022-08-31T09:02:02.298Z,4.15
2022-08-31T09:04:54.299Z,4.25
2022-08-31T09:07:50.554Z,3.53
2022-08-31T09:10:34.655Z,3.90
2022-08-31T09:13:33.941Z,4.03
2022-08-31T09:16:35.249Z,3.80
2022-08-31T09:19:13.340Z,4.07
2022-08-31T09:21:54.570Z,4.15
2022-08-31T09:24:26.928Z,3.75
2022-08-31T09:27:21.167Z,4.57
2022-08-31T09:30:00.677Z,4.10
2022-08-31T09:32:35.090Z,4.50
2022-08-31T09:35:07.431Z,3.97
2022-08-31T09:37:46.647Z,3.75
2022-08-31T09:40:23.670Z,4.22
2022-08-31T09:43:16.459Z,4.55
2022-08-31T09:46:08.364Z,3.92
2022-08-31T09:48:44.269Z,3.53
2022-08-31T09:51:34.554Z,4.10
2022-08-31T09:54:41.101Z,4.20
2022-08-31T09:57:11.976Z,4.40
2022-08-31T09:59:49.513Z,3.67
2022-08-31T10:02:38.282Z,3.83
2022-08-31T10:05:17.789Z,3.70
2022-08-31T10:07:56.869Z,3.75
2022-08-31T10:10:31.447Z,4.18
2022-08-31T10:13:19.147Z,3.65
2022-08-31T10:15:54.489Z,3.67
2022-08-31T10:18:51.094Z,3.95
2022-08-31T10:21:44.189Z,3.92
2022-08-31T10:24:28.943Z,3.03
2022-08-31T10:27:06.600Z,3.67
2022-08-31T10:30:00.173Z,3.60
2022-08-31T10:32:53.808Z,3.60
2022-08-31T10:35:37.500Z,3.65
2022-08-31T10:38:21.394Z,3.13
2022-08-31T10:41:11.630Z,3.42
2022-08-31T10:44:23.849Z,3.40
2022-08-31T10:46:54.599Z,4.03
2022-08-31T10:49:23.082Z,4.15
2022-08-31T10:52:05.389Z,3.05
2022-08-31T10:54:55.298Z,3.42
2022-08-31T10:57:53.192Z,3.38
2022-08-31T11:00:43.769Z,3.60
2022-08-31T11:03:50.659Z,3.40
2022-08-31T11:06:52.282Z,3.40
2022-08-31T11:09:36.738Z,3.50
2022-08-31T11:12:18.566Z,3.97
2022-08-31T11:15:13.205Z,3.33
2022-08-31T11:18:02.343Z,3.20
2022-08-31T11:21:08.169Z,3.28
2022-08-31T11:23:57.143Z,3.85
2022-08-31T11:26:45.287Z,3.47
2022-08-31T11:29:34.396Z,4.07
2022-08-31T11:32:19.064Z,3.50
2022-08-31T11:34:53.747Z,3.28
2022-08-31T11:37:52.865Z,3.40
2022-08-31T11:40:57.687Z,3.47
2022-08-31T11:43:44.086Z,3.72
2022-08-31T11:46:43.389Z,3.22
2022-08-31T11:49:34.784Z,3.28
2022-08-31T11:52:06.460Z,3.25
2022-08-31T11:54:57.011Z,3.47
2022-08-31T11:57:29.234Z,3.55
2022-08-31T11:59:56.446Z,3.75
2022-08-31T12:02:44.883Z,3.30
2022-08-31T12:05:13.728Z,3.63
2022-08-31T12:07:48.428Z,3.35
2022-08-31T12:10:40.215Z,3.67
2022-08-31T12:13:19.603Z,3.47
2022-08-31T12:16:21.760Z,3.20
2022-08-31T12:19:48.664Z,3.65
2022-08-31T12:23:15.390Z,3.15
2022-08-31T12:26:25.109Z,3.20
2022-08-31T12:29:17.768Z,3.47
2022-08-31T12:32:01.256Z,3.58
2022-08-31T12:34:29.678Z,3.67
2022-08-31T12:36:56.835Z,3.20
2022-08-31T12:39:27.221Z,3.53
2022-08-31T12:42:03.212Z,3.67
2022-08-31T12:44:41.811Z,3.30
2022-08-31T12:47:27.627Z,3.42
2022-08-31T12:50:19.512Z,3.50
2022-08-31T12:53:26.315Z,4.43
2022-08-31T12:56:10.596Z,3.50
2022-08-31T12:58:56.312Z,4.63
2022-08-31T13:01:26.736Z,3.70
2022-08-31T13:06:27.365Z,4.00
2022-08-31T13:08:55.629Z,3.95
2022-08-31T13:11:41.045Z,3.45
2022-08-31T13:14:24.280Z,4.00
2022-08-31T13:16:54.881Z,3.53
2022-08-31T13:19:29.553Z,3.80
2022-08-31T13:22:06.049Z,3.78
2022-08-31T13:24:41.380Z,2.80
2022-08-31T13:27:18.254Z,3.42
2022-08-31T13:29:46.862Z,3.58
2022-08-31T13:32:32.538Z,3.20
2022-08-31T13:35:10.649Z,3.35
2022-08-31T13:37:43.230Z,3.50
2022-08-31T13:40:13.771Z,3.85
2022-08-31T13:42:50.806Z,4.20
2022-08-31T13:45:34.041Z,3.20
2022-08-31T13:48:19.382Z,3.85
2022-08-31T13:50:54.878Z,3.20
2022-08-31T13:53:40.020Z,3.60
2022-08-31T13:56:56.332Z,2.75
2022-08-31T13:59:30.202Z,2.90
2022-08-31T14:02:01.528Z,3.30
2022-08-31T14:04:49.691Z,2.78
2022-08-31T14:07:26.817Z,2.88
2022-08-31T14:10:24.115Z,2.65
2022-08-31T14:12:59.404Z,3.00
2022-08-31T14:15:41.399Z,3.20
2022-08-31T14:18:28.021Z,3.33
2022-08-31T14:21:22.026Z,2.83
2022-08-31T14:24:02.675Z,3.15
2022-08-31T14:26:36.993Z,2.83
2022-08-31T14:29:10.896Z,3.05
2022-08-31T14:31:52.510Z,3.08
2022-08-31T14:34:32.305Z,3.20
2022-08-31T14:37:07.005Z,2.40
2022-08-31T14:39:43.126Z,2.90
2022-08-31T14:42:18.739Z,2.67
2022-08-31T14:45:05.142Z,2.60
2022-08-31T14:47:36.250Z,2.50
2022-08-31T14:50:08.169Z,3.22
2022-08-31T14:52:45.940Z,3.17
2022-08-31T14:55:14.806Z,2.80
2022-08-31T14:57:45.702Z,3.17
2022-08-31T15:00:23.166Z,3.50
2022-08-31T15:02:56.839Z,2.88
2022-08-31T15:05:25.538Z,2.17
2022-08-31T15:07:54.844Z,2.42
2022-08-31T15:10:25.811Z,2.85
2022-08-31T15:12:53.896Z,3.03
2022-08-31T15:15:21.503Z,2.38
2022-08-31T15:17:51.757Z,3.00
2022-08-31T15:20:20.324Z,2.63
2022-08-31T15:22:48.483Z,2.80
2022-08-31T15:25:17.169Z,2.75
2022-08-31T15:27:44.677Z,2.55
2022-08-31T15:30:19.827Z,2.75
2022-08-31T15:32:48.246Z,2.67
2022-08-31T15:35:20.009Z,2.83
2022-08-31T15:37:53.235Z,2.80
2022-08-31T15:40:22.031Z,2.40
2022-08-31T15:42:50.371Z,2.83
2022-08-31T15:45:17.638Z,2.28
2022-08-31T15:48:04.634Z,2.28
2022-08-31T15:50:32.609Z,2.30
2022-08-31T15:53:08.923Z,2.70
2022-08-31T15:55:40.719Z,2.38
2022-08-31T15:58:12.497Z,2.45
2022-08-31T16:00:42.081Z,2.95
2022-08-31T16:03:09.866Z,2.38
2022-08-31T16:05:39.668Z,2.30
2022-08-31T16:08:10.391Z,2.63
2022-08-31T16:10:41.643Z,2.40
2022-08-31T16:13:09.525Z,2.65
2022-08-31T16:15:38.003Z,2.20
2022-08-31T16:18:06.175Z,2.30
2022-08-31T16:20:34.715Z,1.98
2022-08-31T16:23:03.473Z,2.00
2022-08-31T16:25:36.547Z,2.00
2022-08-31T16:28:17.172Z,2.08
2022-08-31T16:30:45.279Z,2.28
2022-08-31T16:33:12.504Z,2.08
2022-08-31T16:35:40.034Z,2.38
2022-08-31T16:38:07.519Z,2.10
2022-08-31T16:40:35.713Z,2.42
2022-08-31T16:43:03.879Z,2.63
2022-08-31T16:45:31.093Z,2.40
2022-08-31T16:48:18.167Z,2.08
2022-08-31T16:50:47.751Z,2.50
2022-08-31T16:53:18.447Z,2.42
2022-08-31T16:55:48.013Z,1.90
2022-08-31T16:58:25.121Z,2.00
2022-08-31T17:01:13.398Z,2.10
2022-08-31T17:03:47.083Z,2.28
2022-08-31T17:06:14.656Z,1.92
2022-08-31T17:08:44.537Z,2.20
2022-08-31T17:11:13.731Z,1.98
2022-08-31T17:13:43.760Z,1.98
2022-08-31T17:16:11.261Z,2.40
2022-08-31T17:18:41.195Z,1.85
2022-08-31T17:21:17.465Z,2.50
2022-08-31T17:23:47.882Z,1.70
2022-08-31T17:26:19.571Z,1.95
2022-08-31T17:28:57.439Z,2.38
2022-08-31T17:31:25.203Z,1.73
2022-08-31T17:33:56.496Z,2.13
2022-08-31T17:36:25.379Z,2.25
2022-08-31T17:38:55.088Z,2.00
2022-08-31T17:41:23.063Z,2.08
2022-08-31T17:43:50.228Z,2.28
2022-08-31T17:46:17.357Z,2.05
2022-08-31T17:48:46.192Z,2.78
2022-08-31T17:51:30.093Z,1.63
2022-08-31T17:54:03.291Z,2.15
2022-08-31T17:56:47.404Z,1.65
2022-08-31T17:59:21.660Z,2.35
2022-08-31T18:01:52.256Z,2.40
2022-08-31T18:04:21.446Z,1.98
2022-08-31T18:06:51.778Z,1.80
2022-08-31T18:09:21.012Z,1.75
2022-08-31T18:11:49.793Z,2.20
2022-08-31T18:14:20.739Z,1.60
2022-08-31T18:16:49.248Z,1.80
2022-08-31T18:19:16.988Z,2.22
2022-08-31T18:21:55.675Z,2.17
2022-08-31T18:24:23.115Z,2.00
2022-08-31T18:26:52.379Z,1.80
2022-08-31T18:29:24.318Z,1.50
2022-08-31T18:31:57.175Z,1.98
2022-08-31T18:34:25.603Z,2.03
2022-08-31T18:36:55.402Z,2.00
2022-08-31T18:39:49.959Z,2.13
2022-08-31T18:42:32.587Z,1.83
2022-08-31T18:45:16.067Z,2.28
2022-08-31T18:47:43.501Z,1.58
2022-08-31T18:50:10.924Z,1.80
2022-08-31T18:52:39.541Z,1.88
2022-08-31T18:55:08.139Z,1.80
2022-08-31T18:57:48.431Z,1.67
2022-08-31T19:00:17.888Z,2.03
2022-08-31T19:02:45.672Z,1.73
2022-08-31T19:05:14.260Z,1.90
2022-08-31T19:07:42.453Z,1.85
2022-08-31T19:10:13.107Z,1.40
2022-08-31T19:12:42.917Z,1.92
2022-08-31T19:15:13.249Z,1.70
2022-08-31T19:17:41.944Z,1.73
2022-08-31T19:20:10.475Z,2.10
2022-08-31T19:22:38.416Z,1.40
2022-08-31T19:25:08.057Z,1.92
2022-08-31T19:27:36.802Z,1.80
2022-08-31T19:30:08.012Z,1.63
2022-08-31T19:32:36.939Z,1.55
2022-08-31T19:35:04.823Z,1.80
2022-08-31T19:37:31.946Z,1.80
2022-08-31T19:39:59.680Z,1.85
2022-08-31T19:45:40.208Z,1.75
2022-08-31T19:50:41.505Z,1.95
2022-08-31T19:53:13.711Z,1.60
2022-08-31T19:55:50.288Z,1.67
2022-08-31T19:58:19.037Z,1.63
2022-08-31T20:00:48.278Z,1.65
2022-08-31T20:03:16.414Z,1.80
2022-08-31T20:05:44.158Z,1.77
2022-08-31T20:08:12.474Z,1.83
2022-08-31T20:10:42.196Z,1.90
2022-08-31T20:13:10.164Z,1.67
2022-08-31T20:15:42.914Z,1.60
2022-08-31T20:18:12.129Z,1.80
2022-08-31T20:20:45.363Z,1.77
2022-08-31T20:23:16.881Z,1.58
2022-08-31T20:25:46.114Z,1.60
2022-08-31T20:28:13.994Z,1.60
2022-08-31T20:30:43.158Z,1.88
2022-08-31T20:33:11.588Z,1.80
2022-08-31T20:35:47.855Z,2.10
2022-08-31T20:38:19.751Z,2.08
2022-08-31T20:40:52.358Z,2.00
2022-08-31T20:43:21.400Z,1.90
2022-08-31T20:45:48.983Z,1.90
2022-08-31T20:48:35.985Z,1.70
2022-08-31T20:51:19.421Z,1.98
2022-08-31T20:53:48.675Z,1.85
2022-08-31T20:56:18.385Z,1.83
2022-08-31T20:58:46.686Z,1.95
2022-08-31T21:01:16.263Z,1.48
2022-08-31T21:03:43.647Z,1.58
2022-08-31T21:06:13.122Z,1.83
2022-08-31T21:08:42.813Z,1.67
2022-08-31T21:11:18.534Z,1.38
2022-08-31T21:13:47.000Z,1.50
2022-08-31T21:16:15.264Z,1.65
2022-08-31T21:18:42.505Z,1.70
2022-08-31T21:21:15.426Z,1.80
2022-08-31T21:23:44.615Z,1.77
2022-08-31T21:26:22.134Z,1.70
2022-08-31T21:28:50.007Z,1.90
2022-08-31T21:31:29.169Z,1.80
2022-08-31T21:34:02.230Z,1.88
2022-08-31T21:36:32.808Z,1.80
2022-08-31T21:39:00.905Z,1.50
2022-08-31T21:41:29.440Z,1.92
2022-08-31T21:43:58.221Z,1.80
2022-08-31T21:46:29.523Z,1.58
2022-08-31T21:48:58.830Z,2.00
2022-08-31T21:51:28.934Z,1.63
2022-08-31T21:56:30.936Z,1.88
2022-08-31T21:58:59.622Z,2.35
2022-08-31T22:01:29.584Z,1.52
2022-08-31T22:06:29.248Z,1.85
2022-08-31T22:09:00.351Z,2.00
2022-08-31T22:11:30.702Z,1.55
2022-08-31T22:13:59.365Z,1.85
2022-08-31T22:16:28.054Z,2.05
2022-08-31T22:19:01.630Z,1.67
2022-08-31T22:21:33.283Z,1.80
2022-08-31T22:24:05.663Z,1.80
2022-08-31T22:26:36.026Z,1.73
2022-08-31T22:29:05.183Z,1.90
2022-08-31T22:34:02.158Z,1.63
2022-08-31T22:36:32.983Z,2.22
2022-08-31T22:39:03.702Z,1.60
2022-08-31T22:41:32.918Z,1.75
2022-08-31T22:44:00.919Z,1.87
2022-08-31T22:46:28.586Z,1.90
2022-08-31T22:48:55.778Z,1.80
2022-08-31T22:51:23.352Z,1.77
2022-08-31T22:53:53.929Z,2.10
2022-08-31T22:56:27.605Z,1.95
2022-08-31T22:58:56.577Z,1.65
2022-08-31T23:01:30.490Z,2.10
2022-08-31T23:04:00.851Z,1.77
2022-08-31T23:06:30.472Z,1.95
2022-08-31T23:08:58.542Z,1.77
2022-08-31T23:11:26.552Z,1.83
2022-08-31T23:13:55.852Z,1.48
2022-08-31T23:16:30.314Z,2.50
2022-08-31T23:19:02.348Z,2.17
2022-08-31T23:21:36.804Z,1.83
2022-08-31T23:24:04.800Z,2.00
2022-08-31T23:26:32.181Z,1.92
2022-08-31T23:29:00.147Z,1.77
2022-08-31T23:31:28.193Z,1.80
2022-08-31T23:33:55.539Z,1.90
2022-08-31T23:36:26.337Z,1.73
2022-08-31T23:38:55.443Z,1.90
2022-08-31T23:41:29.741Z,2.17
2022-08-31T23:43:58.981Z,1.83
2022-08-31T23:46:26.174Z,1.90
2022-08-31T23:48:54.126Z,2.42
2022-08-31T23:51:22.554Z,1.85
2022-08-31T23:53:54.164Z,1.65
2022-08-31T23:56:31.843Z,1.77
2022-08-31T23:59:09.691Z,1.63
